Flight Track Log - Related Links

Times and Time Zones

All times are in EDT time to prevent confusion due to time zone crossing. See the AAY877 flight status page for this flight to view local times or setup timezone preferences in your user account.

Time Position Orientation Groundspeed Altitude Reporting Facility
EDT Latitude Longitude Course Direction KTS MPH feet Rate Location/Type
Thu 06:23:08 PM 41.9633 -89.0731 161° South 286 329 9,400  Level Chicago Center
Thu 06:24:10 PM 41.8822 -89.0356 161° South 302 348 11,000 1,548 Climbing Chicago Center
Thu 06:25:12 PM 41.7642 -88.9822 161° South 367 422 12,600 1,887 Climbing Chicago Center
Thu 06:26:14 PM 41.6625 -88.9153 154° Southeast 404 465 14,900 2,129 Climbing Chicago Center
Thu 06:27:16 PM 41.5531 -88.8278 149° Southeast 427 491 17,000 1,742 Climbing Chicago Center
Thu 06:28:18 PM 41.4578 -88.7544 150° Southeast 432 497 18,500 1,887 Climbing Chicago Center
Thu 06:29:20 PM 41.3539 -88.6717 149° Southeast 436 502 20,900 1,753 Climbing Chicago Center
Thu 06:30:52 PM 41.1789 -88.5394 150° Southeast 483 556 23,000 1,344 Climbing Indianapolis Center
Thu 06:31:25 PM 41.1211 -88.4889 147° Southeast 449 517 23,700 1,137 Climbing Chicago Center
Thu 06:32:27 PM 41.0094 -88.4025 150° Southeast 462 532 24,800 919 Climbing Chicago Center
Thu 06:33:29 PM 40.8964 -88.3131 149° Southeast 474 545 25,600 1,065 Climbing Chicago Center
Thu 06:34:31 PM 40.7822 -88.2244 150° Southeast 475 547 27,000 1,597 Climbing Chicago Center
Thu 06:35:33 PM 40.6483 -88.1197 149° Southeast 473 544 28,900 1,294 Climbing Chicago Center
Thu 06:37:04 PM 40.4844 -87.9969 150° Southeast 464 534 30,300 902 Climbing Indianapolis Center
Thu 06:38:06 PM 40.3725 -87.9119 150° Southeast 464 534 31,200 871 Climbing Indianapolis Center
Thu 06:39:08 PM 40.2600 -87.8292 151° Southeast 464 534 32,100 758 Climbing Indianapolis Center
Thu 06:39:41 PM 40.2022 -87.7808 147° Southeast 465 535 32,400 563 Climbing Chicago Center
Thu 06:40:44 PM 40.0856 -87.6922 150° Southeast 465 535 33,000 288 Climbing Chicago Center
Thu 06:41:46 PM 39.9742 -87.6089 150° Southeast 465 535 33,000  Level Chicago Center
Thu 06:42:48 PM 39.8389 -87.5072 150° Southeast 474 545 33,000  Level Chicago Center
Thu 06:43:50 PM 39.7250 -87.4250 151° Southeast 467 537 33,000  Level Chicago Center
Thu 06:44:52 PM 39.6128 -87.3397 150° Southeast 470 541 33,000  Level Chicago Center
Thu 06:45:54 PM 39.4989 -87.2572 151° Southeast 471 542 33,000  Level Chicago Center
Thu 06:46:56 PM 39.3892 -87.1742 150° Southeast 464 534 33,000  Level Chicago Center
Thu 06:47:58 PM 39.2556 -87.0736 150° Southeast 465 535 33,000  Level Chicago Center
Thu 06:49:29 PM 39.0839 -86.9453 150° Southeast 463 533 33,000  Level Indianapolis Center
Thu 06:50:31 PM 38.9717 -86.8625 150° Southeast 462 532 33,000  Level Indianapolis Center
Thu 06:51:33 PM 38.8597 -86.7806 150° Southeast 462 532 33,000  Level Indianapolis Center
Thu 06:52:36 PM 38.7489 -86.6983 150° Southeast 461 531 33,000  Level Indianapolis Center
Thu 06:53:38 PM 38.6394 -86.6172 150° Southeast 456 525 33,000  Level Indianapolis Center
Thu 06:54:40 PM 38.5283 -86.5358 150° Southeast 454 522 33,000  Level Indianapolis Center
Thu 06:55:42 PM 38.4175 -86.4553 150° Southeast 454 522 33,000  Level Indianapolis Center
Thu 06:56:44 PM 38.3058 -86.3756 151° Southeast 454 522 33,000  Level Indianapolis Center
Thu 06:57:46 PM 38.1717 -86.2797 151° Southeast 454 522 33,000  Level Indianapolis Center
Thu 06:58:48 PM 38.0603 -86.1986 150° Southeast 455 524 33,000  Level Indianapolis Center
Thu 06:59:50 PM 37.9508 -86.1192 150° Southeast 455 524 33,000  Level Indianapolis Center
Thu 07:00:52 PM 37.8397 -86.0389 150° Southeast 455 524 33,000  Level Indianapolis Center
Thu 07:01:54 PM 37.7283 -85.9589 150° Southeast 455 524 33,000  Level Indianapolis Center
Thu 07:02:57 PM 37.6167 -85.8806 151° Southeast 456 525 33,000  Level Indianapolis Center
Thu 07:03:59 PM 37.5033 -85.8039 152° Southeast 456 525 33,000  Level Indianapolis Center
Thu 07:05:01 PM 37.3925 -85.7236 150° Southeast 457 526 33,000  Level Indianapolis Center
Thu 07:07:05 PM 37.1478 -85.5517 151° Southeast 458 527 33,000  Level Indianapolis Center
Thu 07:08:07 PM 37.0256 -85.4669 151° Southeast 459 528 33,000  Level Indianapolis Center
Thu 07:09:09 PM 36.9133 -85.3881 151° Southeast 459 528 33,000  Level Indianapolis Center
Thu 07:10:00 PM 36.8890 -85.3624 151° Southeast  Level FlightAware Approximate
Thu 07:10:11 PM 36.8000 -85.3106 151° Southeast 461 531 33,000  Level Indianapolis Center
Thu 07:12:20 PM 36.5411 -85.1653 156° South 467 537 33,000  Level Atlanta Center
Thu 07:13:17 PM 36.4469 -85.1378 167° South 447 514 33,000  Level Indianapolis Center
Thu 07:14:19 PM 36.2997 -85.1011 169° South 447 514 33,000  Level Indianapolis Center
Thu 07:15:21 PM 36.1786 -85.0703 168° South 447 514 33,000  Level Indianapolis Center
Thu 07:16:23 PM 36.0586 -85.0403 169° South 446 513 33,000  Level Indianapolis Center
Thu 07:17:25 PM 35.9375 -85.0419 181° South 437 503 33,000  Level Indianapolis Center
Thu 07:18:20 PM 35.8164 -85.0528 184° South 438 504 33,000  Level Atlanta Center
Thu 07:19:20 PM 35.6953 -85.0539 180° South 438 504 33,000  Level Atlanta Center
Thu 07:20:20 PM 35.5764 -85.0600 182° South 438 504 33,000  Level Atlanta Center
Thu 07:21:20 PM 35.4658 -85.0639 182° South 438 504 33,000  Level Atlanta Center
Thu 07:23:20 PM 35.2211 -85.1192 190° South 438 504 33,000  Level Atlanta Center
Thu 07:24:20 PM 35.1042 -85.1508 192° South 433 498 33,000  Level Atlanta Center
Thu 07:27:20 PM 34.7431 -85.1561 163° South 436 502 33,000  Level Atlanta Center
Thu 07:28:20 PM 34.6367 -85.1294 168° South 442 509 33,000  Level Atlanta Center
Thu 07:29:20 PM 34.5158 -85.1078 172° South 442 509 33,000  Level Atlanta Center
Thu 07:30:20 PM 34.3931 -85.0833 171° South 447 514 33,000  Level Atlanta Center
Thu 07:31:20 PM 34.2681 -85.0592 171° South 447 514 33,000  Level Atlanta Center
Thu 07:32:20 PM 34.1347 -85.0353 172° South 447 514 33,000  Level Atlanta Center
Thu 07:33:20 PM 34.0094 -85.0111 171° South 447 514 33,000  Level Atlanta Center
Thu 07:34:20 PM 33.8844 -84.9897 172° South 447 514 33,000  Level Atlanta Center
Thu 07:35:20 PM 33.7594 -84.9658 171° South 452 520 33,000  Level Atlanta Center
Thu 07:36:20 PM 33.6344 -84.9419 171° South 452 520 33,000  Level Atlanta Center
Thu 07:38:20 PM 33.3883 -84.8947 171° South 452 520 33,000  Level Atlanta Center
Thu 07:39:20 PM 33.2633 -84.8711 171° South 452 520 33,000  Level Atlanta Center
Thu 07:40:20 PM 33.1403 -84.8475 171° South 452 520 33,000  Level Atlanta Center
Thu 07:41:20 PM 33.0172 -84.8267 172° South 452 520 33,000  Level Atlanta Center
Thu 07:42:20 PM 32.8944 -84.8033 171° South 447 514 33,000  Level Atlanta Center
Thu 07:43:20 PM 32.7817 -84.7800 170° South 447 514 33,000  Level Atlanta Center
Thu 07:44:20 PM 32.6589 -84.7567 171° South 447 514 33,000  Level Atlanta Center
Thu 07:45:20 PM 32.5358 -84.7336 171° South 447 514 33,000  Level Atlanta Center
Thu 07:46:20 PM 32.4086 -84.7131 172° South 452 520 33,000  Level Atlanta Center
Thu 07:47:20 PM 32.2856 -84.6875 170° South 452 520 33,000  Level Atlanta Center
Thu 07:48:20 PM 32.1603 -84.6644 171° South 452 520 33,000  Level Atlanta Center
Thu 07:50:27 PM 31.8897 -84.6128 171° South 454 522 33,000  Level Jacksonville Center
Thu 07:51:27 PM 31.7669 -84.5908 171° South 449 517 33,000  Level Jacksonville Center
Thu 07:52:27 PM 31.6439 -84.5692 171° South 449 517 33,000  Level Jacksonville Center
Thu 07:53:27 PM 31.5314 -84.5475 171° South 449 517 33,000  Level Jacksonville Center
Thu 07:54:27 PM 31.4064 -84.5258 172° South 449 517 33,000  Level Jacksonville Center
Thu 07:55:27 PM 31.2856 -84.5044 171° South 449 517 33,000  Level Jacksonville Center
Thu 07:57:00 PM 31.1145 -84.4324 160° South  Level FlightAware Approximate
Thu 07:57:27 PM 31.0400 -84.4492 160° South 449 517 33,000  Level Jacksonville Center
Thu 07:58:27 PM 30.9217 -84.3939 158° South 449 517 33,000  Level Jacksonville Center
Thu 07:59:27 PM 30.8053 -84.3414 159° South 456 525 33,000  Level Jacksonville Center
Thu 08:00:27 PM 30.6869 -84.2864 158° South 461 531 33,000  Level Jacksonville Center
Thu 08:01:27 PM 30.5706 -84.2342 159° South 461 531 33,000 -50 Level Jacksonville Center
Thu 08:02:27 PM 30.4397 -84.1767 159° South 456 525 32,900  Descending Jacksonville Center
Thu 08:03:27 PM 30.3378 -84.1272 157° South 451 519 33,000 50 Climbing Jacksonville Center
Thu 08:04:27 PM 30.2172 -84.0753 160° South 451 519 33,000 -50 Level Jacksonville Center
Thu 08:05:27 PM 30.0986 -84.0211 158° South 451 519 32,900 -50 Descending Jacksonville Center
Thu 08:06:27 PM 29.9822 -83.9692 159° South 451 519 32,900  Level Jacksonville Center
Thu 08:07:27 PM 29.8511 -83.9081 158° South 451 519 32,900  Level Jacksonville Center
Thu 08:08:27 PM 29.7389 -83.8422 153° Southeast 458 527 32,900 50 Level Jacksonville Center
Thu 08:09:27 PM 29.6289 -83.7719 151° Southeast 458 527 33,000 50 Climbing Jacksonville Center
Thu 08:10:27 PM 29.5186 -83.6992 150° Southeast 448 516 33,000 -450 Level Jacksonville Center
Thu 08:11:27 PM 29.4064 -83.6292 151° Southeast 453 521 32,100 -2,133 Descending Jacksonville Center
Thu 08:13:27 PM 29.1794 -83.4847 151° Southeast 458 527 26,600 -2,600 Descending Jacksonville Center
Thu 08:14:27 PM 29.0692 -83.4128 150° Southeast 458 527 24,300 -2,100 Descending Jacksonville Center
Thu 08:15:27 PM 28.9589 -83.3433 151° Southeast 453 521 22,400 -1,600 Descending Jacksonville Center
Thu 08:16:27 PM 28.8569 -83.2767 150° Southeast 448 516 21,100 -1,600 Descending Jacksonville Center
Thu 08:17:27 PM 28.7569 -83.2122 151° Southeast 430 495 19,200 -1,900 Descending Jacksonville Center
Thu 08:18:27 PM 28.6567 -83.1506 152° Southeast 419 482 17,300 -1,868 Descending Jacksonville Center
Thu 08:19:13 PM 28.5833 -83.1000 149° Southeast 395 455 15,900 -1,695 Descending Tampa TRACON
Thu 08:20:38 PM 28.4500 -83.0167 151° Southeast 389 448 13,600 -1,640 Descending Tampa TRACON
Thu 08:21:32 PM 28.3667 -82.9667 152° Southeast 382 440 12,100 -1,440 Descending Tampa TRACON
Thu 08:22:43 PM 28.2675 -82.9106 154° Southeast 370 426 10,600 -1,273 Descending Miami Center
Thu 08:23:44 PM 28.1928 -82.8619 150° Southeast 328 377 9,300 -1,512 Descending Miami Center
Thu 08:24:46 PM 28.1228 -82.8211 153° Southeast 294 338 7,500 -1,667 Descending Miami Center
Thu 08:25:32 PM 28.0500 -82.8167 177° South 260 299 6,300 -1,620 Descending Tampa TRACON
Thu 08:26:26 PM 27.9833 -82.8167 180° South 257 296 4,800 -1,632 Descending Tampa TRACON
Thu 08:27:26 PM 27.9167 -82.8167 180° South 258 297 3,200 -1,045 Descending Tampa TRACON
Thu 08:28:38 PM 27.8500 -82.8000 168° South 236 272 2,500 -714 Descending Tampa TRACON
Thu 08:29:32 PM 27.8333 -82.7333 106° East 191 220 1,700 -722 Descending Tampa TRACON
Thu 08:30:26 PM 27.8333 -82.6833 90° East 151 174 1,200 -650 Descending Tampa TRACON
Thu 08:31:32 PM 27.8833 -82.6833 360° North 129 148 400 -727 Descending Tampa TRACON

Login

Don't have an account? Register now (free) for customized features, flight alerts, and more!